Airfield :
LOGIN :

Register | Disclaimer

   EN    FR    IT 

 










Legend :    VFR   Marginal VFR   IFR   Intensive IFR   Very Intensive IFR
Visi :
Ceiling :
>= 8 km
>= 3000ft
5 to 8 km
1000 to 3000 ft
1500m to 5 km
500 to 1000 ft
800 to 1500m
200 to 500 ft
< 800m
< 200 ft
Symbols :   Thunderstorms  Fog  Heavy snow  Heavy precipitations  Wind > 20 kt
SIGMETs :     Misc.  Thunderstorms  Icing  Turbulence  Mountain Waves  Volcanic Ashes






- Airport Elevation : 26 ft
- IATA code : GLA


EGPF - Glasgow

CURRENT METAR :
  • 190250Z AUTO 05007KT 030V090 9999 BKN012 BKN016 11/09 Q1022

EXPIRED METARs :
  • 190220Z AUTO 07007KT 9999 SCT009 BKN013 10/09 Q1022
  • 190150Z AUTO 05006KT 9999 OVC011 11/09 Q1022
  • 190120Z AUTO 05006KT 9999 SCT011 BKN033 10/08 Q1021
  • 190050Z AUTO 07008KT 9999 FEW032 11/09 Q1021
  • 190020Z AUTO 05009KT 9999 BKN010 BKN032 11/09 Q1022
  • 182350Z AUTO 05009KT 9999 BKN010 11/09 Q1022
  • 182320Z AUTO 07009KT 9999 BKN010 BKN028 BKN035 12/09 Q1021
  • 182250Z AUTO 07008KT 9999 FEW012 BKN031 BKN045 11/09 Q1021
  • 182220Z AUTO 07010KT 9999 BKN028 12/09 Q1021

TAF AMD TAF EGPF
Valid from the 19 at 02:00 until the 20 at 00:00 UTC


190221Z 1902/1924 07008KT 9999 SCT025
TEMPO 1902/1909 BKN008
BECMG 1909/1912 26010KT
ATIS : +44 141 887 7449



MET'MAP, your aeronautical weather chart ! - Copyright ORBIFLY December 2007 - Disclaimer

ORBIFLY MET'MAP TEAM :

Programming & Development : Alexandra Zaïnal
Original concept : Baudouin d'Aumeries
Technical & hardware support : Manuel Goepfert
Assistance : Marc-Olivier Méhu




SOURCES & CREDITS :

   NOAA